Time,TemperatureF,DewpointF,PressureIn,WindDirection,WindDirectionDegrees,WindSpeedMPH,WindSpeedGustMPH,Humidity,HourlyPrecipIn,Conditions,Clouds,dailyrainin,SoftwareType,DateUTC
2013-07-26 00:02:00,74.9,67.2,30.04,SSE,148,0.0,5.0,77,0.00,,---,0.00,VWS V13.01,2013-07-26 05:02:00,
2013-07-26 00:07:00,74.8,67.1,30.04,SSE,148,1.0,5.0,77,0.00,,---,0.00,VWS V13.01,2013-07-26 05:07:00,
2013-07-26 00:12:00,74.8,67.5,30.03,SSE,148,0.0,5.0,78,0.00,,---,0.00,VWS V13.01,2013-07-26 05:12:00,
2013-07-26 00:17:00,74.6,67.3,30.04,SSE,148,0.0,5.0,78,0.00,,---,0.00,VWS V13.01,2013-07-26 05:17:00,
2013-07-26 00:23:00,74.6,67.3,30.03,SSE,148,0.0,5.0,78,0.00,,---,0.00,VWS V13.01,2013-07-26 05:23:00,
2013-07-26 00:28:00,74.4,67.5,30.03,SSE,148,0.0,5.0,79,0.00,,---,0.00,VWS V13.01,2013-07-26 05:28:00,
2013-07-26 00:30:00,65.5,62.2,30.13,ESE,112,0.0,0.0,89,0.00,,---,0.00,VWS V13.01,2013-07-26 05:30:00,
2013-07-26 00:33:00,74.3,67.4,30.03,SE,146,5.0,6.0,79,0.00,,---,0.00,VWS V13.01,2013-07-26 05:33:00,
2013-07-26 00:38:00,74.2,67.3,30.03,SE,146,0.0,0.0,79,0.00,,---,0.00,VWS V13.01,2013-07-26 05:38:00,
2013-07-26 00:43:00,74.1,67.5,30.03,SE,146,0.0,1.0,80,0.00,,---,0.00,VWS V13.01,2013-07-26 05:43:00,
2013-07-26 00:48:00,74.0,67.4,30.03,SE,146,0.0,2.0,80,0.00,,---,0.00,VWS V13.01,2013-07-26 05:48:00,
2013-07-26 00:53:00,73.9,67.3,30.04,SE,146,0.0,2.0,80,0.00,,---,0.00,VWS V13.01,2013-07-26 05:53:00,
2013-07-26 00:58:00,73.9,67.3,30.03,SE,132,3.0,6.0,80,0.00,,---,0.00,VWS V13.01,2013-07-26 05:58:00,
2013-07-26 01:03:00,73.8,67.6,30.03,SE,132,2.0,6.0,81,0.00,,---,0.00,VWS V13.01,2013-07-26 06:03:00,
2013-07-26 01:08:00,73.7,67.5,30.03,SE,132,0.0,0.0,81,0.00,,---,0.00,VWS V13.01,2013-07-26 06:08:00,
2013-07-26 01:13:00,73.6,67.4,30.03,SE,132,0.0,4.0,81,0.00,,---,0.00,VWS V13.01,2013-07-26 06:13:00,
2013-07-26 01:18:00,73.6,67.4,30.03,SE,132,0.0,4.0,81,0.00,,---,0.00,VWS V13.01,2013-07-26 06:18:00,
2013-07-26 01:24:00,73.5,67.3,30.03,SE,132,0.0,4.0,81,0.00,,---,0.00,VWS V13.01,2013-07-26 06:24:00,
2013-07-26 01:29:00,73.4,67.2,30.02,SE,132,0.0,4.0,81,0.00,,---,0.00,VWS V13.01,2013-07-26 06:29:00,
2013-07-26 01:34:00,73.4,67.2,30.02,SE,132,0.0,4.0,81,0.00,,---,0.00,VWS V13.01,2013-07-26 06:34:00,
2013-07-26 01:39:00,73.4,67.2,30.02,SE,132,0.0,0.0,81,0.00,,---,0.00,VWS V13.01,2013-07-26 06:39:00,
2013-07-26 01:44:00,73.5,67.3,30.02,SE,132,0.0,4.0,81,0.00,,---,0.00,VWS V13.01,2013-07-26 06:44:00,
2013-07-26 01:49:00,73.5,67.3,30.02,SE,132,1.0,5.0,81,0.00,,---,0.00,VWS V13.01,2013-07-26 06:49:00,
2013-07-26 01:54:00,73.5,67.3,30.03,SE,130,0.0,5.0,81,0.00,,---,0.00,VWS V13.01,2013-07-26 06:54:00,
2013-07-26 01:59:00,73.4,67.2,30.03,SE,126,0.0,6.0,81,0.00,,---,0.00,VWS V13.01,2013-07-26 06:59:00,
2013-07-26 02:04:00,73.3,67.1,30.03,SE,126,0.0,6.0,81,0.00,,---,0.00,VWS V13.01,2013-07-26 07:04:00,
2013-07-26 02:09:00,73.3,67.1,30.03,SE,125,0.0,0.0,81,0.00,,---,0.00,VWS V13.01,2013-07-26 07:09:00,
2013-07-26 02:14:00,73.2,67.0,30.03,SE,125,0.0,3.0,81,0.00,,---,0.00,VWS V13.01,2013-07-26 07:14:00,
2013-07-26 02:19:00,73.1,66.9,30.03,SE,126,0.0,4.0,81,0.00,,---,0.00,VWS V13.01,2013-07-26 07:19:00,
2013-07-26 02:24:00,73.1,66.9,30.03,SE,125,0.0,4.0,81,0.00,,---,0.00,VWS V13.01,2013-07-26 07:24:00,
2013-07-26 02:29:00,73.0,66.8,30.03,SE,125,0.0,4.0,81,0.00,,---,0.00,VWS V13.01,2013-07-26 07:29:00,
2013-07-26 02:34:00,73.0,66.8,30.03,SE,126,1.0,4.0,81,0.00,,---,0.00,VWS V13.01,2013-07-26 07:34:00,
2013-07-26 02:39:00,72.9,66.7,30.03,SE,126,0.0,1.0,81,0.00,,---,0.00,VWS V13.01,2013-07-26 07:39:00,
2013-07-26 02:44:00,72.8,66.6,30.02,SE,126,0.0,3.0,81,0.00,,---,0.00,VWS V13.01,2013-07-26 07:44:00,
2013-07-26 02:49:00,72.7,66.5,30.02,SE,125,0.0,4.0,81,0.00,,---,0.00,VWS V13.01,2013-07-26 07:49:00,
2013-07-26 02:54:00,72.6,66.4,30.02,SE,126,0.0,4.0,81,0.00,,---,0.00,VWS V13.01,2013-07-26 07:54:00,
2013-07-26 02:59:00,72.5,66.3,30.02,SE,125,0.0,5.0,81,0.00,,---,0.00,VWS V13.01,2013-07-26 07:59:00,
2013-07-26 03:04:00,72.5,66.3,30.02,SE,125,0.0,5.0,81,0.00,,---,0.00,VWS V13.01,2013-07-26 08:04:00,
2013-07-26 03:09:00,72.4,66.2,30.02,SE,125,0.0,3.0,81,0.00,,---,0.00,VWS V13.01,2013-07-26 08:09:00,
2013-07-26 03:14:00,72.3,66.2,30.02,SE,126,0.0,3.0,81,0.00,,---,0.00,VWS V13.01,2013-07-26 08:14:00,
2013-07-26 03:19:00,72.2,66.4,30.01,SE,126,0.0,4.0,82,0.00,,---,0.00,VWS V13.01,2013-07-26 08:19:00,
2013-07-26 03:24:00,72.2,66.4,30.01,ESE,117,2.0,6.0,82,0.00,,---,0.00,VWS V13.01,2013-07-26 08:24:00,
2013-07-26 03:29:00,72.0,65.9,30.01,ESE,113,1.0,6.0,81,0.00,,---,0.00,VWS V13.01,2013-07-26 08:29:00,
2013-07-26 03:34:00,71.9,66.1,30.01,ESE,113,0.0,6.0,82,0.00,,---,0.00,VWS V13.01,2013-07-26 08:34:00,
2013-07-26 03:40:00,71.9,66.1,30.02,ESE,113,0.0,4.0,82,0.00,,---,0.00,VWS V13.01,2013-07-26 08:40:00,
2013-07-26 03:45:00,71.9,65.8,30.01,ESE,113,4.0,4.0,81,0.00,,---,0.00,VWS V13.01,2013-07-26 08:45:00,
2013-07-26 03:50:00,71.8,65.7,30.01,ESE,113,0.0,4.0,81,0.00,,---,0.00,VWS V13.01,2013-07-26 08:50:00,
2013-07-26 03:55:00,71.7,65.6,30.02,ESE,113,0.0,4.0,81,0.00,,---,0.00,VWS V13.01,2013-07-26 08:55:00,
2013-07-26 04:00:00,71.6,65.5,30.01,ESE,113,0.0,4.0,81,0.00,,---,0.00,VWS V13.01,2013-07-26 09:00:00,
2013-07-26 04:05:00,71.6,65.8,30.01,ESE,113,0.0,4.0,82,0.00,,---,0.00,VWS V13.01,2013-07-26 09:05:00,
2013-07-26 04:10:00,71.5,65.7,30.01,ESE,113,0.0,2.0,82,0.00,,---,0.00,VWS V13.01,2013-07-26 09:10:00,
2013-07-26 04:15:00,71.4,65.6,30.02,ESE,113,0.0,2.0,82,0.00,,---,0.00,VWS V13.01,2013-07-26 09:15:00,
2013-07-26 04:20:00,71.3,65.5,30.02,ESE,113,0.0,2.0,82,0.00,,---,0.00,VWS V13.01,2013-07-26 09:20:00,
2013-07-26 04:25:00,71.3,65.5,30.02,ESE,113,0.0,5.0,82,0.00,,---,0.00,VWS V13.01,2013-07-26 09:25:00,
2013-07-26 04:30:00,71.3,65.5,30.02,ESE,113,0.0,5.0,82,0.00,,---,0.00,VWS V13.01,2013-07-26 09:30:00,
2013-07-26 04:35:00,71.2,65.4,30.02,ESE,112,0.0,5.0,82,0.00,,---,0.00,VWS V13.01,2013-07-26 09:35:00,
2013-07-26 04:40:00,71.2,65.4,30.02,ESE,112,0.0,7.0,82,0.00,,---,0.00,VWS V13.01,2013-07-26 09:40:00,
2013-07-26 04:45:00,71.1,65.3,30.02,ESE,113,0.0,7.0,82,0.00,,---,0.00,VWS V13.01,2013-07-26 09:45:00,
2013-07-26 04:50:00,71.1,65.3,30.02,ESE,113,0.0,7.0,82,0.00,,---,0.00,VWS V13.01,2013-07-26 09:50:00,
2013-07-26 04:55:00,71.1,65.3,30.02,ESE,113,0.0,7.0,82,0.00,,---,0.00,VWS V13.01,2013-07-26 09:55:00,
2013-07-26 05:00:00,71.0,65.6,30.02,ESE,113,0.0,7.0,83,0.00,,---,0.00,VWS V13.01,2013-07-26 10:00:00,
2013-07-26 05:05:00,71.0,65.6,30.02,ESE,110,0.0,7.0,83,0.00,,---,0.00,VWS V13.01,2013-07-26 10:05:00,
2013-07-26 05:11:00,70.9,65.5,30.01,ESE,110,0.0,5.0,83,0.00,,---,0.00,VWS V13.01,2013-07-26 10:11:00,
2013-07-26 05:16:00,70.9,65.5,30.01,ESE,117,3.0,9.0,83,0.00,,---,0.00,VWS V13.01,2013-07-26 10:16:00,
2013-07-26 05:21:00,70.8,65.4,30.01,ESE,122,0.0,9.0,83,0.00,,---,0.00,VWS V13.01,2013-07-26 10:21:00,
2013-07-26 05:26:00,70.8,65.4,30.02,ESE,122,0.0,9.0,83,0.00,,---,0.00,VWS V13.01,2013-07-26 10:26:00,
2013-07-26 05:31:00,70.8,65.4,30.02,ESE,122,0.0,9.0,83,0.00,,---,0.00,VWS V13.01,2013-07-26 10:31:00,
2013-07-26 05:36:00,70.8,65.4,30.02,ESE,122,0.0,9.0,83,0.00,,---,0.00,VWS V13.01,2013-07-26 10:36:00,
2013-07-26 05:41:00,70.8,65.4,30.02,ESE,121,1.0,3.0,83,0.00,,---,0.00,VWS V13.01,2013-07-26 10:41:00,
2013-07-26 05:46:00,70.9,65.5,30.02,ESE,118,0.0,4.0,83,0.00,,---,0.00,VWS V13.01,2013-07-26 10:46:00,
2013-07-26 05:51:00,70.9,65.5,30.01,ESE,117,0.0,5.0,83,0.00,,---,0.00,VWS V13.01,2013-07-26 10:51:00,
2013-07-26 05:57:00,70.9,65.5,30.02,ESE,117,2.0,5.0,83,0.00,,---,0.00,VWS V13.01,2013-07-26 10:57:00,
2013-07-26 06:02:00,70.8,65.4,30.01,ESE,117,0.0,5.0,83,0.00,,---,0.00,VWS V13.01,2013-07-26 11:02:00,
2013-07-26 06:07:00,70.8,65.4,30.02,ESE,117,0.0,3.0,83,0.00,,---,0.00,VWS V13.01,2013-07-26 11:07:00,
2013-07-26 06:12:00,70.7,65.3,30.02,ESE,115,0.0,5.0,83,0.00,,---,0.00,VWS V13.01,2013-07-26 11:12:00,
2013-07-26 06:17:00,70.6,65.2,30.02,ESE,110,0.0,5.0,83,0.00,,---,0.00,VWS V13.01,2013-07-26 11:17:00,
2013-07-26 06:22:00,70.6,65.2,30.01,ESE,109,0.0,5.0,83,0.00,,---,0.00,VWS V13.01,2013-07-26 11:22:00,
2013-07-26 06:27:00,70.5,65.1,30.01,ESE,110,1.0,5.0,83,0.00,,---,0.00,VWS V13.01,2013-07-26 11:27:00,
2013-07-26 06:32:00,70.4,65.0,30.02,ESE,110,0.0,5.0,83,0.00,,---,0.00,VWS V13.01,2013-07-26 11:32:00,
2013-07-26 06:37:00,70.4,65.0,30.02,ESE,110,0.0,0.0,83,0.00,,---,0.00,VWS V13.01,2013-07-26 11:37:00,
2013-07-26 06:42:00,70.3,64.9,30.02,ESE,111,0.0,0.0,83,0.00,,---,0.00,VWS V13.01,2013-07-26 11:42:00,
2013-07-26 06:47:00,70.3,64.9,30.02,ESE,111,0.0,3.0,83,0.00,,---,0.00,VWS V13.01,2013-07-26 11:47:00,
2013-07-26 06:52:00,70.3,65.2,30.02,ESE,109,2.0,5.0,84,0.00,,---,0.00,VWS V13.01,2013-07-26 11:52:00,
2013-07-26 06:57:00,70.2,65.1,30.02,ESE,105,0.0,5.0,84,0.00,,---,0.00,VWS V13.01,2013-07-26 11:57:00,
2013-07-26 07:03:00,70.2,65.1,30.02,ESE,105,0.0,5.0,84,0.00,,---,0.00,VWS V13.01,2013-07-26 12:03:00,
2013-07-26 07:08:00,70.2,65.1,30.03,ESE,105,0.0,0.0,84,0.00,,---,0.00,VWS V13.01,2013-07-26 12:08:00,
2013-07-26 07:13:00,70.2,65.1,30.03,ESE,105,0.0,0.0,84,0.00,,---,0.00,VWS V13.01,2013-07-26 12:13:00,
2013-07-26 07:18:00,70.2,65.1,30.03,ESE,105,0.0,0.0,84,0.00,,---,0.00,VWS V13.01,2013-07-26 12:18:00,
2013-07-26 07:23:00,70.2,64.8,30.03,ESE,105,0.0,2.0,83,0.00,,---,0.00,VWS V13.01,2013-07-26 12:23:00,
2013-07-26 07:28:00,70.2,64.8,30.03,ESE,105,0.0,2.0,83,0.00,,---,0.00,VWS V13.01,2013-07-26 12:28:00,
2013-07-26 07:33:00,70.2,64.8,30.03,ESE,105,0.0,2.0,83,0.00,,---,0.00,VWS V13.01,2013-07-26 12:33:00,
2013-07-26 07:38:00,70.2,64.8,30.03,ESE,105,0.0,2.0,83,0.00,,---,0.00,VWS V13.01,2013-07-26 12:38:00,
2013-07-26 07:43:00,70.2,64.8,30.04,ESE,105,0.0,2.0,83,0.00,,---,0.00,VWS V13.01,2013-07-26 12:43:00,
2013-07-26 07:48:00,70.2,64.8,30.04,ESE,105,0.0,2.0,83,0.00,,---,0.00,VWS V13.01,2013-07-26 12:48:00,
2013-07-26 07:53:00,70.2,64.8,30.04,ESE,105,0.0,2.0,83,0.00,,---,0.00,VWS V13.01,2013-07-26 12:53:00,
2013-07-26 07:58:00,70.3,64.6,30.04,ESE,105,0.0,2.0,82,0.00,,---,0.00,VWS V13.01,2013-07-26 12:58:00,
2013-07-26 08:03:00,70.3,64.6,30.05,ESE,105,0.0,3.0,82,0.00,,---,0.00,VWS V13.01,2013-07-26 13:03:00,
2013-07-26 08:08:00,70.4,65.0,30.05,ESE,105,0.0,2.0,83,0.00,,---,0.00,VWS V13.01,2013-07-26 13:08:00,
2013-07-26 08:13:00,70.5,65.1,30.05,ESE,105,0.0,4.0,83,0.00,,---,0.00,VWS V13.01,2013-07-26 13:13:00,
2013-07-26 08:18:00,70.6,65.5,30.05,ESE,105,0.0,4.0,84,0.00,,---,0.00,VWS V13.01,2013-07-26 13:18:00,
2013-07-26 08:23:00,70.6,65.5,30.05,ESE,105,0.0,4.0,84,0.00,,---,0.00,VWS V13.01,2013-07-26 13:23:00,
2013-07-26 08:28:00,70.7,65.6,30.05,ESE,105,0.0,4.0,84,0.00,,---,0.00,VWS V13.01,2013-07-26 13:28:00,
2013-07-26 08:33:00,70.7,66.0,30.05,ESE,105,0.0,4.0,85,0.00,,---,0.00,VWS V13.01,2013-07-26 13:33:00,
2013-07-26 08:38:00,70.8,66.1,30.04,ESE,105,0.0,0.0,85,0.00,,---,0.00,VWS V13.01,2013-07-26 13:38:00,
2013-07-26 08:43:00,70.9,66.2,30.04,ESE,105,0.0,0.0,85,0.00,,---,0.00,VWS V13.01,2013-07-26 13:43:00,
2013-07-26 08:49:00,70.9,66.2,30.04,ESE,105,0.0,0.0,85,0.00,,---,0.00,VWS V13.01,2013-07-26 13:49:00,
2013-07-26 08:54:00,70.9,66.2,30.04,ESE,105,0.0,0.0,85,0.00,,---,0.00,VWS V13.01,2013-07-26 13:54:00,
2013-07-26 08:59:00,70.8,66.1,30.03,ESE,105,0.0,0.0,85,0.00,,---,0.00,VWS V13.01,2013-07-26 13:59:00,
2013-07-26 09:04:00,70.8,65.7,30.03,ESE,107,0.0,3.0,84,0.00,,---,0.00,VWS V13.01,2013-07-26 14:04:00,
2013-07-26 09:09:00,70.7,65.6,30.03,ESE,107,0.0,0.0,84,0.00,,---,0.00,VWS V13.01,2013-07-26 14:09:00,
2013-07-26 09:14:00,70.7,65.3,30.03,ESE,111,1.0,4.0,83,0.00,,---,0.00,VWS V13.01,2013-07-26 14:14:00,
2013-07-26 09:19:00,70.8,65.0,30.03,ESE,113,3.0,5.0,82,0.00,,---,0.00,VWS V13.01,2013-07-26 14:19:00,
2013-07-26 09:24:00,70.8,65.0,30.03,ESE,114,0.0,5.0,82,0.00,,---,0.00,VWS V13.01,2013-07-26 14:24:00,
2013-07-26 09:29:00,71.0,64.9,30.03,ESE,114,0.0,5.0,81,0.00,,---,0.00,VWS V13.01,2013-07-26 14:29:00,
2013-07-26 09:34:00,71.1,65.0,30.03,ESE,114,0.0,5.0,81,0.00,,---,0.00,VWS V13.01,2013-07-26 14:34:00,
2013-07-26 09:39:00,71.2,65.1,30.03,ESE,114,0.0,3.0,81,0.00,,---,0.00,VWS V13.01,2013-07-26 14:39:00,
2013-07-26 09:44:00,71.3,65.2,30.03,ESE,114,0.0,4.0,81,0.00,,---,0.00,VWS V13.01,2013-07-26 14:44:00,
2013-07-26 09:49:00,71.3,65.2,30.03,ESE,114,0.0,4.0,81,0.00,,---,0.00,VWS V13.01,2013-07-26 14:49:00,
2013-07-26 09:54:00,71.5,65.4,30.03,ESE,114,0.0,4.0,81,0.00,,---,0.00,VWS V13.01,2013-07-26 14:54:00,
2013-07-26 09:59:00,71.6,65.1,30.03,ESE,114,0.0,4.0,80,0.00,,---,0.00,VWS V13.01,2013-07-26 14:59:00,
2013-07-26 10:04:00,71.7,65.2,30.03,ESE,115,0.0,4.0,80,0.00,,---,0.00,VWS V13.01,2013-07-26 15:04:00,
2013-07-26 10:09:00,71.7,65.2,30.03,ESE,115,0.0,0.0,80,0.00,,---,0.00,VWS V13.01,2013-07-26 15:09:00,
2013-07-26 10:14:00,71.8,65.3,30.03,ESE,115,1.0,1.0,80,0.00,,---,0.00,VWS V13.01,2013-07-26 15:14:00,
2013-07-26 10:19:00,71.9,65.4,30.03,ESE,115,0.0,1.0,80,0.00,,---,0.00,VWS V13.01,2013-07-26 15:19:00,
2013-07-26 10:24:00,72.0,65.9,30.03,ESE,115,0.0,4.0,81,0.00,,---,0.00,VWS V13.01,2013-07-26 15:24:00,
2013-07-26 10:29:00,72.1,65.6,30.03,ESE,116,0.0,4.0,80,0.00,,---,0.00,VWS V13.01,2013-07-26 15:29:00,
2013-07-26 10:34:00,72.0,65.5,30.03,ESE,118,0.0,4.0,80,0.00,,---,0.00,VWS V13.01,2013-07-26 15:34:00,
2013-07-26 10:40:00,72.0,65.1,30.03,SE,132,0.0,6.0,79,0.00,,---,0.00,VWS V13.01,2013-07-26 15:40:00,
2013-07-26 10:45:00,72.1,65.6,30.04,SE,131,0.0,6.0,80,0.00,,---,0.00,VWS V13.01,2013-07-26 15:45:00,
2013-07-26 10:50:00,72.1,66.7,30.03,SE,132,0.0,6.0,83,0.19,,---,0.21,VWS V13.01,2013-07-26 15:50:00,
2013-07-26 10:55:00,71.6,66.2,30.03,SSE,153,3.0,6.0,83,0.30,,---,0.30,VWS V13.01,2013-07-26 15:55:00,
2013-07-26 11:00:00,71.1,66.0,30.03,South,176,0.0,6.0,84,0.30,,---,0.30,VWS V13.01,2013-07-26 16:00:00,
2013-07-26 11:05:00,70.8,66.1,30.03,South,175,0.0,6.0,85,0.30,,---,0.30,VWS V13.01,2013-07-26 16:05:00,
2013-07-26 11:10:00,70.6,65.9,30.04,South,175,0.0,0.0,85,0.30,,---,0.30,VWS V13.01,2013-07-26 16:10:00,
2013-07-26 11:15:00,70.5,66.1,30.04,South,175,0.0,0.0,86,0.30,,---,0.30,VWS V13.01,2013-07-26 16:15:00,
2013-07-26 11:20:00,70.4,66.3,30.05,South,175,0.0,0.0,87,0.30,,---,0.30,VWS V13.01,2013-07-26 16:20:00,
2013-07-26 11:25:00,70.3,66.2,30.05,South,175,0.0,0.0,87,0.30,,---,0.30,VWS V13.01,2013-07-26 16:25:00,
2013-07-26 11:30:00,70.1,66.1,30.06,South,175,0.0,1.0,87,0.33,,---,0.34,VWS V13.01,2013-07-26 16:30:00,
2013-07-26 11:35:00,70.0,66.3,30.06,SSW,205,0.0,1.0,88,0.35,,---,0.35,VWS V13.01,2013-07-26 16:35:00,
2013-07-26 11:40:00,69.8,66.1,30.06,SSW,205,0.0,0.0,88,0.35,,---,0.35,VWS V13.01,2013-07-26 16:40:00,
2013-07-26 11:45:00,69.7,66.0,30.06,SSW,205,0.0,0.0,88,0.35,,---,0.36,VWS V13.01,2013-07-26 16:45:00,
2013-07-26 11:50:00,69.6,65.9,30.06,SSW,205,0.0,0.0,88,0.36,,---,0.36,VWS V13.01,2013-07-26 16:50:00,
2013-07-26 11:55:00,69.5,65.8,30.06,SSW,205,0.0,0.0,88,0.36,,---,0.36,VWS V13.01,2013-07-26 16:55:00,
2013-07-26 12:00:00,69.4,66.0,30.06,SSW,205,0.0,0.0,89,0.36,,---,0.36,VWS V13.01,2013-07-26 17:00:00,
2013-07-26 12:05:00,69.4,66.0,30.06,SSW,205,0.0,0.0,89,0.37,,---,0.37,VWS V13.01,2013-07-26 17:05:00,
2013-07-26 12:10:00,69.4,66.0,30.07,SSW,205,0.0,0.0,89,0.07,,---,0.37,VWS V13.01,2013-07-26 17:10:00,
2013-07-26 12:16:00,69.4,66.3,30.07,SSW,205,0.0,0.0,90,0.07,,---,0.37,VWS V13.01,2013-07-26 17:16:00,
2013-07-26 12:21:00,69.4,66.3,30.06,SSW,205,0.0,1.0,90,0.07,,---,0.37,VWS V13.01,2013-07-26 17:21:00,
2013-07-26 12:26:00,69.4,66.3,30.06,SSW,203,0.0,1.0,90,0.08,,---,0.38,VWS V13.01,2013-07-26 17:26:00,
2013-07-26 12:31:00,69.4,66.3,30.06,SSW,203,0.0,1.0,90,0.08,,---,0.38,VWS V13.01,2013-07-26 17:31:00,
2013-07-26 12:36:00,69.4,66.3,30.06,SSW,195,2.0,2.0,90,0.08,,---,0.38,VWS V13.01,2013-07-26 17:36:00,
2013-07-26 12:41:00,69.6,66.9,30.06,SSE,167,4.0,4.0,91,0.03,,---,0.38,VWS V13.01,2013-07-26 17:41:00,
2013-07-26 12:47:00,69.6,66.9,30.06,ENE,72,3.0,4.0,91,0.03,,---,0.38,VWS V13.01,2013-07-26 17:47:00,
2013-07-26 12:52:00,69.7,67.0,30.06,ENE,57,0.0,4.0,91,0.03,,---,0.38,VWS V13.01,2013-07-26 17:52:00,
2013-07-26 12:57:00,69.7,67.0,30.06,ENE,58,4.0,4.0,91,0.04,,---,0.39,VWS V13.01,2013-07-26 17:57:00,
2013-07-26 13:02:00,69.7,67.0,30.06,ENE,58,0.0,5.0,91,0.04,,---,0.39,VWS V13.01,2013-07-26 18:02:00,
2013-07-26 13:07:00,69.7,67.0,30.05,NE,55,0.0,0.0,91,0.04,,---,0.39,VWS V13.01,2013-07-26 18:07:00,
2013-07-26 13:12:00,69.9,67.5,30.05,NE,55,0.0,5.0,92,0.02,,---,0.39,VWS V13.01,2013-07-26 18:12:00,
2013-07-26 13:17:00,70.2,67.8,30.05,NE,56,0.0,5.0,92,0.03,,---,0.40,VWS V13.01,2013-07-26 18:17:00,
2013-07-26 13:22:00,70.3,67.9,30.05,ENE,64,0.0,5.0,92,0.03,,---,0.40,VWS V13.01,2013-07-26 18:22:00,
2013-07-26 13:27:00,70.3,67.9,30.05,ENE,64,0.0,5.0,92,0.03,,---,0.40,VWS V13.01,2013-07-26 18:27:00,
2013-07-26 13:32:00,70.4,68.0,30.05,ENE,64,0.0,5.0,92,0.03,,---,0.40,VWS V13.01,2013-07-26 18:32:00,
2013-07-26 13:37:00,70.4,68.0,30.04,ENE,65,0.0,4.0,92,0.03,,---,0.40,VWS V13.01,2013-07-26 18:37:00,
2013-07-26 13:42:00,70.5,68.1,30.04,ENE,64,0.0,4.0,92,0.02,,---,0.40,VWS V13.01,2013-07-26 18:42:00,
2013-07-26 13:47:00,70.6,68.2,30.04,ENE,65,1.0,4.0,92,0.02,,---,0.40,VWS V13.01,2013-07-26 18:47:00,
2013-07-26 13:52:00,70.8,68.7,30.04,ENE,65,0.0,4.0,93,0.02,,---,0.40,VWS V13.01,2013-07-26 18:52:00,
2013-07-26 13:57:00,70.8,68.4,30.04,ENE,65,0.0,4.0,92,0.02,,---,0.40,VWS V13.01,2013-07-26 18:57:00,
2013-07-26 14:02:00,71.0,68.9,30.03,ENE,65,2.0,4.0,93,0.02,,---,0.40,VWS V13.01,2013-07-26 19:02:00,
2013-07-26 14:07:00,70.9,68.5,30.03,ENE,64,0.0,3.0,92,0.02,,---,0.40,VWS V13.01,2013-07-26 19:07:00,
2013-07-26 14:12:00,70.9,68.5,30.03,ENE,65,2.0,4.0,92,0.01,,---,0.40,VWS V13.01,2013-07-26 19:12:00,
2013-07-26 14:17:00,71.0,68.6,30.03,ENE,64,0.0,4.0,92,0.01,,---,0.40,VWS V13.01,2013-07-26 19:17:00,
2013-07-26 14:22:00,71.0,68.6,30.03,ENE,65,0.0,4.0,92,0.01,,---,0.40,VWS V13.01,2013-07-26 19:22:00,
2013-07-26 14:27:00,71.0,68.6,30.03,ENE,65,0.0,4.0,92,0.01,,---,0.40,VWS V13.01,2013-07-26 19:27:00,
2013-07-26 14:32:00,70.9,68.5,30.03,ENE,78,0.0,4.0,92,0.01,,---,0.40,VWS V13.01,2013-07-26 19:32:00,
2013-07-26 14:38:00,70.9,68.5,30.03,East,89,0.0,0.0,92,0.00,,---,0.40,VWS V13.01,2013-07-26 19:38:00,
2013-07-26 14:43:00,71.0,68.6,30.03,East,89,0.0,0.0,92,0.00,,---,0.40,VWS V13.01,2013-07-26 19:43:00,
2013-07-26 14:48:00,71.1,68.7,30.03,East,92,0.0,4.0,92,0.00,,---,0.40,VWS V13.01,2013-07-26 19:48:00,
2013-07-26 14:53:00,71.1,68.3,30.03,ESE,118,0.0,6.0,91,0.00,,---,0.40,VWS V13.01,2013-07-26 19:53:00,
2013-07-26 14:58:00,70.9,68.2,30.02,SSE,167,0.0,6.0,91,0.00,,---,0.40,VWS V13.01,2013-07-26 19:58:00,
2013-07-26 15:03:00,70.8,68.1,30.02,East,98,0.0,6.0,91,0.00,,---,0.40,VWS V13.01,2013-07-26 20:03:00,
2013-07-26 15:08:00,70.7,67.9,30.01,SE,130,1.0,4.0,91,0.00,,---,0.40,VWS V13.01,2013-07-26 20:08:00,
2013-07-26 15:13:00,70.6,67.8,30.01,ESE,117,0.0,4.0,91,0.00,,---,0.40,VWS V13.01,2013-07-26 20:13:00,
2013-07-26 15:18:00,70.6,67.8,30.01,East,90,0.0,5.0,91,0.00,,---,0.40,VWS V13.01,2013-07-26 20:18:00,
2013-07-26 15:23:00,70.4,67.7,30.00,East,88,0.0,6.0,91,0.01,,---,0.41,VWS V13.01,2013-07-26 20:23:00,
2013-07-26 15:28:00,70.4,67.7,30.00,ESE,117,4.0,9.0,91,0.01,,---,0.41,VWS V13.01,2013-07-26 20:28:00,
2013-07-26 15:33:00,70.3,67.6,30.00,ENE,59,2.0,9.0,91,0.01,,---,0.41,VWS V13.01,2013-07-26 20:33:00,
2013-07-26 15:38:00,70.2,67.4,30.00,East,94,4.0,7.0,91,0.02,,---,0.42,VWS V13.01,2013-07-26 20:38:00,
2013-07-26 15:43:00,70.0,67.3,30.00,East,84,1.0,7.0,91,0.02,,---,0.43,VWS V13.01,2013-07-26 20:43:00,
2013-07-26 15:48:00,69.9,67.2,30.00,SE,129,3.0,7.0,91,0.03,,---,0.43,VWS V13.01,2013-07-26 20:48:00,
2013-07-26 15:53:00,69.9,67.2,30.00,ENE,74,3.0,7.0,91,0.04,,---,0.44,VWS V13.01,2013-07-26 20:53:00,
2013-07-26 15:59:00,69.9,67.2,30.00,ENE,71,7.0,10.0,91,0.04,,---,0.44,VWS V13.01,2013-07-26 20:59:00,
2013-07-26 16:04:00,69.8,67.1,29.99,ENE,66,4.0,10.0,91,0.04,,---,0.44,VWS V13.01,2013-07-26 21:04:00,
2013-07-26 16:09:00,69.8,67.1,29.99,ENE,68,5.0,6.0,91,0.04,,---,0.44,VWS V13.01,2013-07-26 21:09:00,
2013-07-26 16:14:00,69.7,67.0,29.99,ENE,67,4.0,7.0,91,0.05,,---,0.45,VWS V13.01,2013-07-26 21:14:00,
2013-07-26 16:19:00,69.7,67.0,29.99,ENE,76,6.0,10.0,91,0.05,,---,0.45,VWS V13.01,2013-07-26 21:19:00,
2013-07-26 16:24:00,69.6,67.2,29.99,ENE,70,6.0,11.0,92,0.05,,---,0.45,VWS V13.01,2013-07-26 21:24:00,
2013-07-26 16:29:00,69.5,67.1,29.99,ENE,72,6.0,11.0,92,0.05,,---,0.45,VWS V13.01,2013-07-26 21:29:00,
2013-07-26 16:34:00,69.6,67.2,29.99,NE,46,2.0,11.0,92,0.05,,---,0.45,VWS V13.01,2013-07-26 21:34:00,
2013-07-26 16:39:00,69.7,67.3,29.99,NE,54,5.0,5.0,92,0.03,,---,0.45,VWS V13.01,2013-07-26 21:39:00,
2013-07-26 16:44:00,69.8,67.4,29.99,ENE,65,5.0,6.0,92,0.03,,---,0.45,VWS V13.01,2013-07-26 21:44:00,
2013-07-26 16:49:00,69.8,67.4,29.99,ENE,64,3.0,7.0,92,0.03,,---,0.45,VWS V13.01,2013-07-26 21:49:00,
2013-07-26 16:54:00,69.8,67.4,29.99,ENE,77,4.0,7.0,92,0.03,,---,0.45,VWS V13.01,2013-07-26 21:54:00,
2013-07-26 17:00:00,69.7,67.3,30.00,ENE,71,2.0,7.0,92,0.03,,---,0.45,VWS V13.01,2013-07-26 22:00:00,
2013-07-26 17:05:00,69.7,67.3,30.00,ENE,69,1.0,7.0,92,0.03,,---,0.45,VWS V13.01,2013-07-26 22:05:00,
2013-07-26 17:10:00,69.7,67.3,30.00,ENE,69,3.0,5.0,92,0.02,,---,0.46,VWS V13.01,2013-07-26 22:10:00,
2013-07-26 17:15:00,69.7,67.6,30.00,ENE,69,4.0,5.0,93,0.02,,---,0.46,VWS V13.01,2013-07-26 22:15:00,
2013-07-26 17:20:00,69.7,67.6,30.00,ENE,69,2.0,5.0,93,0.02,,---,0.46,VWS V13.01,2013-07-26 22:20:00,
2013-07-26 17:25:00,69.7,67.6,30.00,ENE,69,0.0,5.0,93,0.02,,---,0.46,VWS V13.01,2013-07-26 22:25:00,
2013-07-26 17:30:00,69.7,67.6,30.00,ENE,69,0.0,5.0,93,0.02,,---,0.46,VWS V13.01,2013-07-26 22:30:00,
2013-07-26 17:35:00,69.7,67.6,30.00,ENE,69,0.0,5.0,93,0.02,,---,0.46,VWS V13.01,2013-07-26 22:35:00,
2013-07-26 17:40:00,69.8,67.7,30.00,ENE,69,1.0,3.0,93,0.02,,---,0.47,VWS V13.01,2013-07-26 22:40:00,
2013-07-26 18:07:00,70.1,68.0,29.99,ENE,69,3.0,5.0,93,0.03,,---,0.48,VWS V13.01,2013-07-26 23:07:00,
2013-07-26 18:37:00,69.5,67.4,29.98,SSE,153,9.0,11.0,93,0.11,,---,0.56,VWS V13.01,2013-07-26 23:37:00,
2013-07-26 18:43:00,69.3,67.2,29.97,SSE,158,5.0,11.0,93,0.14,,---,0.60,VWS V13.01,2013-07-26 23:43:00,
2013-07-26 18:48:00,69.2,67.1,29.97,SSW,203,2.0,11.0,93,0.16,,---,0.62,VWS V13.01,2013-07-26 23:48:00,
2013-07-26 18:53:00,69.0,66.9,29.97,SSE,161,0.0,11.0,93,0.19,,---,0.65,VWS V13.01,2013-07-26 23:53:00,
2013-07-26 18:58:00,68.8,66.7,29.97,SSW,200,0.0,11.0,93,0.20,,---,0.66,VWS V13.01,2013-07-26 23:58:00,
2013-07-26 19:03:00,68.7,66.6,29.98,SSW,196,1.0,11.0,93,0.21,,---,0.67,VWS V13.01,2013-07-27 00:03:00,
2013-07-26 19:08:00,68.6,66.5,29.97,South,171,7.0,8.0,93,0.19,,---,0.67,VWS V13.01,2013-07-27 00:08:00,
2013-07-26 19:13:00,68.2,66.1,29.97,SSW,196,2.0,11.0,93,0.19,,---,0.68,VWS V13.01,2013-07-27 00:13:00,
2013-07-26 19:18:00,68.1,66.0,29.97,SSE,157,0.0,11.0,93,0.20,,---,0.68,VWS V13.01,2013-07-27 00:18:00,
2013-07-26 19:23:00,68.0,65.9,29.97,South,180,4.0,11.0,93,0.20,,---,0.68,VWS V13.01,2013-07-27 00:23:00,
2013-07-26 19:28:00,67.9,65.8,29.97,SSW,193,7.0,11.0,93,0.20,,---,0.68,VWS V13.01,2013-07-27 00:28:00,
2013-07-26 19:33:00,67.6,65.5,29.98,ESE,115,0.0,11.0,93,0.20,,---,0.68,VWS V13.01,2013-07-27 00:33:00,
2013-07-26 19:38:00,67.5,65.4,29.98,East,80,0.0,5.0,93,0.12,,---,0.68,VWS V13.01,2013-07-27 00:38:00,
2013-07-26 19:43:00,67.4,65.3,29.98,East,86,0.0,5.0,93,0.12,,---,0.68,VWS V13.01,2013-07-27 00:43:00,
2013-07-26 19:48:00,67.3,65.2,29.98,East,86,0.0,5.0,93,0.12,,---,0.68,VWS V13.01,2013-07-27 00:48:00,
2013-07-26 19:53:00,67.2,65.1,29.97,East,86,0.0,5.0,93,0.12,,---,0.68,VWS V13.01,2013-07-27 00:53:00,
2013-07-26 19:58:00,67.3,65.5,29.96,ENE,65,2.0,7.0,94,0.12,,---,0.68,VWS V13.01,2013-07-27 00:58:00,
2013-07-26 20:03:00,67.4,65.6,29.95,ENE,72,4.0,9.0,94,0.12,,---,0.68,VWS V13.01,2013-07-27 01:03:00,
2013-07-26 20:08:00,67.6,65.8,29.95,ENE,74,6.0,7.0,94,0.01,,---,0.68,VWS V13.01,2013-07-27 01:08:00,
2013-07-26 20:14:00,67.7,65.9,29.96,NE,40,3.0,9.0,94,0.01,,---,0.68,VWS V13.01,2013-07-27 01:14:00,
2013-07-26 20:19:00,67.7,65.9,29.95,ENE,59,3.0,9.0,94,0.01,,---,0.68,VWS V13.01,2013-07-27 01:19:00,
2013-07-26 20:24:00,67.6,65.8,29.97,NE,34,4.0,10.0,94,0.01,,---,0.68,VWS V13.01,2013-07-27 01:24:00,
2013-07-26 20:29:00,67.5,65.7,29.96,ENE,57,4.0,10.0,94,0.01,,---,0.68,VWS V13.01,2013-07-27 01:29:00,
2013-07-26 20:34:00,67.4,65.6,29.97,ENE,57,0.0,10.0,94,0.01,,---,0.68,VWS V13.01,2013-07-27 01:34:00,
2013-07-26 20:39:00,67.3,65.5,29.97,ENE,58,0.0,0.0,94,0.00,,---,0.68,VWS V13.01,2013-07-27 01:39:00,
2013-07-26 20:44:00,67.3,65.5,29.97,ENE,58,0.0,4.0,94,0.00,,---,0.68,VWS V13.01,2013-07-27 01:44:00,
2013-07-26 20:49:00,67.3,65.5,29.97,ENE,58,0.0,4.0,94,0.00,,---,0.68,VWS V13.01,2013-07-27 01:49:00,
2013-07-26 20:54:00,67.2,65.4,29.97,ENE,59,2.0,5.0,94,0.00,,---,0.68,VWS V13.01,2013-07-27 01:54:00,
2013-07-26 20:59:00,67.2,65.4,29.97,ENE,71,2.0,6.0,94,0.00,,---,0.68,VWS V13.01,2013-07-27 01:59:00,
2013-07-26 21:04:00,67.2,65.4,29.97,ENE,71,4.0,6.0,94,0.00,,---,0.68,VWS V13.01,2013-07-27 02:04:00,
2013-07-26 21:09:00,67.1,65.3,29.98,ENE,71,2.0,5.0,94,0.00,,---,0.68,VWS V13.01,2013-07-27 02:09:00,
2013-07-26 21:14:00,67.1,65.3,29.98,ENE,71,2.0,5.0,94,0.00,,---,0.68,VWS V13.01,2013-07-27 02:14:00,
2013-07-26 21:19:00,67.1,65.3,29.98,East,90,2.0,7.0,94,0.00,,---,0.68,VWS V13.01,2013-07-27 02:19:00,
2013-07-26 21:24:00,67.1,65.3,29.98,East,90,0.0,7.0,94,0.00,,---,0.68,VWS V13.01,2013-07-27 02:24:00,
2013-07-26 21:29:00,67.1,65.3,29.98,East,90,2.0,7.0,94,0.00,,---,0.68,VWS V13.01,2013-07-27 02:29:00,
2013-07-26 21:34:00,67.1,65.3,29.99,East,90,0.0,7.0,94,0.00,,---,0.68,VWS V13.01,2013-07-27 02:34:00,
2013-07-26 21:40:00,67.1,65.3,29.99,East,83,0.0,5.0,94,0.00,,---,0.68,VWS V13.01,2013-07-27 02:40:00,
2013-07-26 21:45:00,67.0,65.2,29.99,East,83,0.0,5.0,94,0.00,,---,0.68,VWS V13.01,2013-07-27 02:45:00,
2013-07-26 21:50:00,67.0,65.2,29.99,ENE,78,5.0,5.0,94,0.00,,---,0.68,VWS V13.01,2013-07-27 02:50:00,
2013-07-26 21:55:00,66.8,65.0,29.99,ENE,72,1.0,5.0,94,0.00,,---,0.68,VWS V13.01,2013-07-27 02:55:00,
2013-07-26 22:00:00,66.8,65.0,29.99,ENE,73,2.0,5.0,94,0.00,,---,0.68,VWS V13.01,2013-07-27 03:00:00,
2013-07-26 22:05:00,66.7,64.9,29.99,ENE,71,3.0,5.0,94,0.00,,---,0.68,VWS V13.01,2013-07-27 03:05:00,
2013-07-26 22:10:00,66.6,64.8,29.99,NE,56,5.0,6.0,94,0.00,,---,0.68,VWS V13.01,2013-07-27 03:10:00,
2013-07-26 22:15:00,66.5,64.7,29.99,NE,53,4.0,6.0,94,0.00,,---,0.68,VWS V13.01,2013-07-27 03:15:00,
2013-07-26 22:20:00,66.4,64.6,30.00,NE,53,1.0,6.0,94,0.00,,---,0.68,VWS V13.01,2013-07-27 03:20:00,
2013-07-26 22:25:00,66.3,64.5,30.00,NE,53,2.0,6.0,94,0.00,,---,0.68,VWS V13.01,2013-07-27 03:25:00,
2013-07-26 22:30:00,66.2,64.4,30.00,NE,53,0.0,6.0,94,0.00,,---,0.68,VWS V13.01,2013-07-27 03:30:00,
2013-07-26 22:35:00,66.1,64.3,30.00,NE,53,0.0,6.0,94,0.00,,---,0.68,VWS V13.01,2013-07-27 03:35:00,
2013-07-26 22:40:00,66.1,64.3,30.01,NE,53,0.0,3.0,94,0.00,,---,0.68,VWS V13.01,2013-07-27 03:40:00,
2013-07-26 22:45:00,66.0,64.2,30.01,NE,53,0.0,3.0,94,0.00,,---,0.68,VWS V13.01,2013-07-27 03:45:00,
2013-07-26 22:50:00,66.0,64.2,30.01,NE,53,0.0,3.0,94,0.00,,---,0.68,VWS V13.01,2013-07-27 03:50:00,
2013-07-26 22:55:00,66.1,64.3,30.00,NE,53,0.0,4.0,94,0.00,,---,0.68,VWS V13.01,2013-07-27 03:55:00,
2013-07-26 23:01:00,66.1,64.3,30.00,NE,53,0.0,4.0,94,0.00,,---,0.68,VWS V13.01,2013-07-27 04:01:00,
2013-07-26 23:02:00,66.1,64.3,30.00,NE,53,0.0,4.0,94,0.00,,---,0.68,VWS V13.01,2013-07-27 04:02:00,
2013-07-26 23:05:00,66.1,64.3,30.00,NE,53,0.0,4.0,94,0.00,,---,0.68,VWS V13.01,2013-07-27 04:05:00,
2013-07-26 23:10:00,66.1,64.3,30.00,NE,53,0.0,0.0,94,0.00,,---,0.68,VWS V13.01,2013-07-27 04:10:00,
2013-07-26 23:16:00,66.2,64.4,30.00,NE,53,0.0,0.0,94,0.00,,---,0.68,VWS V13.01,2013-07-27 04:16:00,
2013-07-26 23:21:00,66.2,64.4,30.00,NE,53,0.0,0.0,94,0.00,,---,0.68,VWS V13.01,2013-07-27 04:21:00,
2013-07-26 23:26:00,66.2,64.4,30.01,NE,53,0.0,0.0,94,0.00,,---,0.68,VWS V13.01,2013-07-27 04:26:00,
2013-07-26 23:31:00,66.3,64.8,30.01,NE,53,0.0,0.0,95,0.00,,---,0.68,VWS V13.01,2013-07-27 04:31:00,
2013-07-26 23:36:00,66.3,64.8,30.01,NE,53,0.0,0.0,95,0.00,,---,0.68,VWS V13.01,2013-07-27 04:36:00,
2013-07-26 23:41:00,66.4,64.9,30.01,NE,53,0.0,0.0,95,0.00,,---,0.68,VWS V13.01,2013-07-27 04:41:00,
2013-07-26 23:47:00,66.4,64.6,30.01,NE,53,0.0,0.0,94,0.00,,---,0.68,VWS V13.01,2013-07-27 04:47:00,
2013-07-26 23:52:00,66.4,64.6,30.01,NE,53,0.0,0.0,94,0.00,,---,0.68,VWS V13.01,2013-07-27 04:52:00,
2013-07-26 23:57:00,66.4,64.6,30.01,NE,53,0.0,0.0,94,0.00,,---,0.68,VWS V13.01,2013-07-27 04:57:00,